createdAt,value
2022-08-01T00:02:57.278Z,8.32
2022-08-01T00:08:02.096Z,8.02
2022-08-01T00:13:05.159Z,9.48
2022-08-01T00:18:08.361Z,8.23
2022-08-01T00:23:12.903Z,7.07
2022-08-01T00:28:16.019Z,9.25
2022-08-01T00:33:18.996Z,8.50
2022-08-01T00:38:23.411Z,8.15
2022-08-01T00:43:26.632Z,9.90
2022-08-01T00:48:29.639Z,8.27
2022-08-01T00:53:48.357Z,9.68
2022-08-01T00:58:55.626Z,9.02
2022-08-01T01:03:59.996Z,8.38
2022-08-01T01:09:19.121Z,9.23
2022-08-01T01:14:29.710Z,7.90
2022-08-01T01:19:36.034Z,9.40
2022-08-01T01:24:51.752Z,9.63
2022-08-01T01:30:01.206Z,8.45
2022-08-01T01:35:10.052Z,9.27
2022-08-01T01:40:14.510Z,6.57
2022-08-01T01:45:20.444Z,9.45
2022-08-01T01:50:25.092Z,8.38
2022-08-01T01:55:29.050Z,10.60
2022-08-01T02:06:53.922Z,7.35
2022-08-01T02:12:07.605Z,7.20
2022-08-01T02:17:17.663Z,7.25
2022-08-01T02:22:26.915Z,6.78
2022-08-01T02:27:36.102Z,8.32
2022-08-01T02:32:45.130Z,7.25
2022-08-01T02:37:50.440Z,7.40
2022-08-01T02:42:56.989Z,6.90
2022-08-01T02:48:08.042Z,6.68
2022-08-01T02:53:13.061Z,10.93
2022-08-01T02:58:18.521Z,7.80
2022-08-01T03:03:24.522Z,8.98
2022-08-01T03:08:28.113Z,7.95
2022-08-01T03:13:33.122Z,8.43
2022-08-01T03:18:39.032Z,6.07
2022-08-01T03:23:42.805Z,5.10
2022-08-01T03:28:48.425Z,10.25
2022-08-01T03:33:52.848Z,6.38
2022-08-01T03:38:59.316Z,4.22
2022-08-01T03:44:06.419Z,5.05
2022-08-01T03:49:22.135Z,5.43
2022-08-01T03:54:27.849Z,7.03
2022-08-01T03:59:32.392Z,4.45
2022-08-01T04:04:37.311Z,4.75
2022-08-01T04:09:40.688Z,4.35
2022-08-01T04:14:46.337Z,4.88
2022-08-01T04:19:50.629Z,5.65
2022-08-01T04:24:57.576Z,4.90
2022-08-01T04:30:02.571Z,5.38
2022-08-01T04:35:34.901Z,6.65
2022-08-01T04:40:36.859Z,5.07
2022-08-01T04:45:41.177Z,5.38
2022-08-01T04:50:45.966Z,5.43
2022-08-01T04:55:48.939Z,6.25
2022-08-01T05:00:52.410Z,6.05
2022-08-01T05:05:56.780Z,4.28
2022-08-01T05:10:59.808Z,5.22
2022-08-01T05:16:04.634Z,3.90
2022-08-01T05:21:09.262Z,3.40
2022-08-01T05:26:15.051Z,5.20
2022-08-01T05:31:18.725Z,4.43
2022-08-01T05:36:23.023Z,5.43
2022-08-01T05:41:26.037Z,3.78
2022-08-01T05:46:29.152Z,3.40
2022-08-01T05:51:33.959Z,3.55
2022-08-01T05:56:36.972Z,3.38
2022-08-01T06:01:39.858Z,2.95
2022-08-01T06:06:49.587Z,3.55
2022-08-01T06:11:52.700Z,3.25
2022-08-01T06:16:56.209Z,3.95
2022-08-01T06:22:00.816Z,5.30
2022-08-01T06:27:04.535Z,3.03
2022-08-01T06:32:26.863Z,2.65
2022-08-01T06:37:33.172Z,3.13
2022-08-01T06:42:37.881Z,4.15
2022-08-01T06:47:42.113Z,3.65
2022-08-01T06:52:46.909Z,2.75
2022-08-01T06:57:51.635Z,2.97
2022-08-01T07:02:56.464Z,3.25
2022-08-01T07:08:00.889Z,2.80
2022-08-01T07:13:03.957Z,2.72
2022-08-01T07:18:07.286Z,4.53
2022-08-01T07:23:11.762Z,4.20
2022-08-01T07:28:16.087Z,5.97
2022-08-01T07:33:19.183Z,2.65
2022-08-01T07:38:23.490Z,3.55
2022-08-01T07:43:26.726Z,2.28
2022-08-01T07:48:30.090Z,3.13
2022-08-01T07:53:34.385Z,3.47
2022-08-01T07:58:38.044Z,2.47
2022-08-01T08:03:41.184Z,1.38
2022-08-01T08:08:45.680Z,1.65
2022-08-01T08:13:49.337Z,2.25
2022-08-01T08:18:52.729Z,1.85
2022-08-01T08:24:14.683Z,2.75
2022-08-01T08:29:17.943Z,18.00
2022-08-01T08:34:21.474Z,4.53
2022-08-01T08:39:26.976Z,5.70
2022-08-01T08:44:30.583Z,4.25
2022-08-01T08:49:35.931Z,5.05
2022-08-01T08:54:43.089Z,3.25
2022-08-01T08:59:46.717Z,4.53
2022-08-01T09:04:50.513Z,5.03
2022-08-01T09:09:55.155Z,5.47
2022-08-01T09:14:58.230Z,7.45
2022-08-01T09:20:04.185Z,7.25
2022-08-01T09:25:11.896Z,9.73
2022-08-01T09:30:17.140Z,9.60
2022-08-01T09:35:30.080Z,11.60
2022-08-01T09:40:49.540Z,12.48
2022-08-01T09:45:53.814Z,7.63
2022-08-01T09:51:04.516Z,9.55
2022-08-01T09:56:15.472Z,6.18
2022-08-01T10:01:18.597Z,7.25
2022-08-01T10:06:24.759Z,7.25
2022-08-01T10:11:36.540Z,6.30
2022-08-01T10:16:41.281Z,10.35
2022-08-01T10:21:58.484Z,6.13
2022-08-01T10:27:08.287Z,5.32
2022-08-01T10:32:13.104Z,7.82
2022-08-01T10:37:18.169Z,6.25
2022-08-01T10:42:23.481Z,4.07
2022-08-01T10:47:50.787Z,2.70
2022-08-01T10:53:16.067Z,5.00
2022-08-01T10:58:26.127Z,3.63
2022-08-01T11:03:55.990Z,5.80
2022-08-01T11:09:01.683Z,6.10
2022-08-01T11:14:11.771Z,5.13
2022-08-01T11:19:15.587Z,3.92
2022-08-01T11:24:38.602Z,4.32
2022-08-01T11:29:43.892Z,5.15
2022-08-01T11:34:57.157Z,3.47
2022-08-01T11:40:22.762Z,5.22
2022-08-01T11:45:50.821Z,5.68
2022-08-01T11:50:55.814Z,5.30
2022-08-01T11:56:00.220Z,4.03
2022-08-01T12:01:04.711Z,4.50
2022-08-01T12:06:10.219Z,6.97
2022-08-01T12:11:13.325Z,6.18
2022-08-01T12:16:18.272Z,5.68
2022-08-01T12:21:23.922Z,4.93
2022-08-01T12:26:41.195Z,5.47
2022-08-01T12:31:45.633Z,5.38
2022-08-01T12:36:48.899Z,5.45
2022-08-01T12:41:52.062Z,2.78
2022-08-01T12:46:56.840Z,5.57
2022-08-01T12:52:00.345Z,8.50
2022-08-01T12:57:03.935Z,3.45
2022-08-01T13:02:12.257Z,4.20
2022-08-01T13:07:15.347Z,2.72
2022-08-01T13:12:18.602Z,6.00
2022-08-01T13:17:34.116Z,4.13
2022-08-01T13:22:38.221Z,2.83
2022-08-01T13:27:53.930Z,7.55
2022-08-01T13:33:02.646Z,3.47
2022-08-01T13:38:05.615Z,3.03
2022-08-01T13:43:08.638Z,1.50
2022-08-01T13:48:18.684Z,3.50
2022-08-01T13:53:22.892Z,1.65
2022-08-01T13:58:25.969Z,2.17
2022-08-01T14:03:33.450Z,3.67
2022-08-01T14:08:36.942Z,3.17
2022-08-01T14:13:46.602Z,1.20
2022-08-01T14:18:51.591Z,1.33
2022-08-01T14:23:54.613Z,3.28
2022-08-01T14:28:57.600Z,1.40
2022-08-01T14:34:02.445Z,1.77
2022-08-01T14:39:05.512Z,2.38
2022-08-01T14:44:10.037Z,3.15
2022-08-01T14:49:14.523Z,1.55
2022-08-01T14:54:17.724Z,1.33
2022-08-01T14:59:30.355Z,1.92
2022-08-01T15:04:34.752Z,1.85
2022-08-01T15:09:37.697Z,1.30
2022-08-01T15:14:49.934Z,2.30
2022-08-01T15:19:56.170Z,3.08
2022-08-01T15:25:01.331Z,2.22
2022-08-01T15:30:05.935Z,3.65
2022-08-01T15:35:12.164Z,3.15
2022-08-01T15:40:15.128Z,2.13
2022-08-01T15:45:45.736Z,5.57
2022-08-01T15:50:44.709Z,1.60
2022-08-01T15:55:52.355Z,2.67
2022-08-01T16:00:56.183Z,3.83
2022-08-01T16:06:00.533Z,5.72
2022-08-01T16:11:03.601Z,1.95
2022-08-01T16:16:09.343Z,3.38
2022-08-01T16:21:13.770Z,1.85
2022-08-01T16:26:27.708Z,1.20
2022-08-01T16:31:38.205Z,2.17
2022-08-01T16:36:56.465Z,2.63
2022-08-01T16:41:59.502Z,1.73
2022-08-01T16:47:05.557Z,4.47
2022-08-01T16:52:10.401Z,1.73
2022-08-01T16:57:14.096Z,2.28
2022-08-01T17:02:17.455Z,4.85
2022-08-01T17:07:21.843Z,0.93
2022-08-01T17:12:24.974Z,3.95
2022-08-01T17:17:29.266Z,1.27
2022-08-01T17:22:33.568Z,2.95
2022-08-01T17:27:36.638Z,2.10
2022-08-01T17:32:42.050Z,2.60
2022-08-01T17:37:46.606Z,3.35
2022-08-01T17:42:49.715Z,4.80
2022-08-01T17:47:52.710Z,1.73
2022-08-01T17:52:57.093Z,2.15
2022-08-01T17:58:00.083Z,1.70
2022-08-01T18:03:03.076Z,3.67
2022-08-01T18:08:12.892Z,1.40
2022-08-01T18:13:18.468Z,4.68
2022-08-01T18:18:33.212Z,1.98
2022-08-01T18:23:38.139Z,1.10
2022-08-01T18:28:46.514Z,2.65
2022-08-01T18:33:50.237Z,2.22
2022-08-01T18:38:54.538Z,1.38
2022-08-01T18:44:04.263Z,4.30
2022-08-01T18:49:12.861Z,1.35
2022-08-01T18:54:18.159Z,3.72
2022-08-01T18:59:21.665Z,1.70
2022-08-01T19:04:24.866Z,1.63
2022-08-01T19:09:29.261Z,2.92
2022-08-01T19:14:32.211Z,1.50
2022-08-01T19:19:36.753Z,2.10
2022-08-01T19:24:41.776Z,3.33
2022-08-01T19:29:53.814Z,2.97
2022-08-01T19:35:04.836Z,4.75
2022-08-01T19:40:10.166Z,3.03
2022-08-01T19:45:13.191Z,2.50
2022-08-01T19:50:16.411Z,2.58
2022-08-01T19:55:22.263Z,3.47
2022-08-01T20:00:28.331Z,3.72
2022-08-01T20:05:31.878Z,2.60
2022-08-01T20:10:38.484Z,3.40
2022-08-01T20:15:45.156Z,7.53
2022-08-01T20:20:50.722Z,1.50
2022-08-01T20:26:00.424Z,4.80
2022-08-01T20:31:05.821Z,4.80
2022-08-01T20:36:11.912Z,4.80
2022-08-01T20:41:17.817Z,2.80
2022-08-01T20:46:23.938Z,4.88
2022-08-01T20:51:28.651Z,2.90
2022-08-01T20:56:38.106Z,3.35
2022-08-01T21:01:47.262Z,2.58
2022-08-01T21:06:57.208Z,3.33
2022-08-01T21:12:05.153Z,2.72
2022-08-01T21:17:18.592Z,4.47
2022-08-01T21:22:27.043Z,2.78
2022-08-01T21:27:34.776Z,2.90
2022-08-01T21:32:39.313Z,2.08
2022-08-01T21:37:43.605Z,2.08
2022-08-01T21:42:48.712Z,5.15
2022-08-01T21:47:52.798Z,6.40
2022-08-01T21:53:17.064Z,2.25
2022-08-01T21:58:38.847Z,4.43
2022-08-01T22:03:47.315Z,1.95
2022-08-01T22:08:52.323Z,4.05
2022-08-01T22:14:01.044Z,2.42
2022-08-01T22:19:04.404Z,4.30
2022-08-01T22:24:09.725Z,2.55
2022-08-01T22:29:15.986Z,4.18
2022-08-01T22:34:20.573Z,4.28
2022-08-01T22:39:24.353Z,3.47
2022-08-01T22:44:35.958Z,2.13
2022-08-01T22:49:44.753Z,2.95
2022-08-01T22:54:51.618Z,2.60
2022-08-01T23:00:01.235Z,4.10
2022-08-01T23:05:08.207Z,2.22
2022-08-01T23:10:11.776Z,5.00
2022-08-01T23:15:16.795Z,4.60
2022-08-01T23:20:19.965Z,5.53
2022-08-01T23:25:24.297Z,3.55
2022-08-01T23:30:30.695Z,5.28
2022-08-01T23:35:35.626Z,4.03
2022-08-01T23:40:42.411Z,1.90
2022-08-01T23:46:03.718Z,3.75
2022-08-01T23:51:09.381Z,3.28
2022-08-01T23:56:16.880Z,4.68
